Terminal Aerodrome Forecast
Issued by NWS

Home | Current Version | Previous Version | Text Only | Print | Product List | Glossary On
Versions: 1 2 3 4 5 6 7 8 9 10 11 12 13
292
FTUS43 KBIS 302332
TAFDIK
TAF
KDIK 302332Z 0100/0124 16006KT P6SM FEW250
     FM010700 17007KT P6SM BKN060
     FM011200 26010KT P6SM -SHRA BKN040
     FM011500 30016KT P6SM VCSH BKN040
     FM011800 30022G31KT P6SM BKN025
     FM012300 31019G27KT P6SM BKN035=

USA.gov is the U.S. government's official web portal to all federal, state and local government web resources and services.